CDT,Max TemperatureF,Mean TemperatureF,Min TemperatureF,Max Dew PointF,MeanDew PointF,Min DewpointF,Max Humidity, Mean Humidity, Min Humidity, Max Sea Level PressureIn, Mean Sea Level PressureIn, Min Sea Level PressureIn, Max VisibilityMiles, Mean VisibilityMiles, Min VisibilityMiles, Max Wind SpeedMPH, Mean Wind SpeedMPH, Max Gust SpeedMPH,PrecipitationIn, CloudCover, Events, WindDirDegrees
2013-7-1,77,68,59,61,55,50,88,64,41,30.18,30.14,30.10,10,10,7,7,2,,0.01,1,Rain-Thunderstorm,359
2013-7-2,78,69,60,61,56,50,94,63,36,30.14,30.10,30.06,10,10,7,9,2,,0.00,0,Thunderstorm,21
2013-7-3,78,66,55,59,54,45,94,60,30,30.10,30.05,29.99,10,10,1,8,2,,0.00,3,,115
2013-7-4,82,71,60,59,55,50,72,52,35,30.03,29.99,29.94,10,10,10,9,3,17,0.00,2,,173
2013-7-5,87,74,62,59,55,52,72,48,31,30.00,29.95,29.91,10,10,10,12,5,22,0.00,0,,183
2013-7-6,89,80,71,64,61,55,65,54,40,29.96,29.92,29.87,10,10,10,8,5,18,0.00,1,,186
2013-7-7,89,81,73,68,65,61,73,59,43,29.92,29.88,29.84,10,10,7,12,3,,0.00,1,,185
2013-7-8,86,80,73,72,69,66,94,72,51,29.98,29.93,29.86,10,8,2,10,4,18,0.00,2,,293
2013-7-9,89,79,69,73,69,64,94,75,46,29.98,29.88,29.81,10,9,3,14,4,25,0.02,2,Rain-Thunderstorm,259
2013-7-10,78,69,60,66,56,50,82,56,36,30.05,29.99,29.88,10,10,10,16,9,26,0.00,2,,319
2013-7-11,82,68,55,61,55,50,94,61,32,30.13,30.08,30.04,10,10,7,6,2,,0.00,0,,246
2013-7-12,82,72,62,59,56,54,77,54,39,30.11,30.06,30.01,10,10,10,14,4,21,0.00,1,Thunderstorm,159
2013-7-13,77,70,62,63,58,54,94,65,53,30.12,30.08,30.02,10,10,7,10,5,17,0.11,4,Rain-Thunderstorm,157
2013-7-14,89,76,62,66,62,59,94,65,43,30.21,30.16,30.12,10,10,10,10,2,17,0.00,1,,163
2013-7-15,89,78,66,72,66,63,94,69,43,30.27,30.23,30.19,10,9,7,8,2,,0.00,3,,142
2013-7-16,91,82,73,72,69,66,88,62,43,30.25,30.22,30.19,10,10,7,9,3,,0.00,1,,221
2013-7-17,95,86,77,72,67,63,83,58,34,30.28,30.23,30.14,10,10,10,8,3,,0.00,1,,273
2013-7-18,95,86,77,70,66,61,74,52,32,30.14,30.00,29.83,10,10,10,14,6,21,0.00,1,,231
2013-7-19,89,79,68,70,63,57,88,57,43,29.89,29.81,29.76,10,10,10,18,8,24,0.11,1,Rain-Thunderstorm,282
2013-7-20,78,70,62,68,62,55,100,72,44,29.96,29.91,29.87,10,10,7,8,1,,0.00,2,Rain-Thunderstorm,352
2013-7-21,77,68,60,68,64,59,94,86,61,29.99,29.92,29.86,10,10,4,9,3,,0.09,3,Rain-Thunderstorm,125
2013-7-22,87,74,60,73,66,59,100,81,62,29.87,29.76,29.63,10,10,7,13,3,18,0.04,4,Rain-Thunderstorm,195
2013-7-23,75,67,59,59,53,50,88,61,44,30.02,29.94,29.81,10,10,10,12,6,18,0.00,1,,351
2013-7-24,73,63,53,57,53,46,100,70,38,30.10,30.05,30.01,10,10,10,6,1,,0.00,3,,44
2013-7-25,80,70,59,64,60,55,100,78,51,30.02,29.98,29.94,10,10,5,14,2,25,0.24,3,Rain-Thunderstorm,235
2013-7-26,73,66,55,64,57,48,100,72,50,30.03,29.95,29.91,10,10,7,17,5,25,0.00,6,,314
2013-7-27,60,54,48,52,48,45,94,79,55,30.04,29.98,29.92,10,10,5,14,9,23,0.06,6,Rain,315
2013-7-28,69,60,50,55,51,46,94,77,53,30.07,29.98,29.92,10,10,5,12,7,18,0.03,6,Rain,319
2013-7-29,77,62,48,59,54,48,100,75,44,30.15,30.12,30.07,10,9,0,8,1,,0.00,2,Fog,96
2013-7-30,73,64,55,66,60,55,100,80,64,30.14,30.10,30.06,10,10,10,7,1,,0.00,7,,111
2013-7-31,78,69,60,64,61,55,100,73,44,30.07,30.04,29.98,10,10,7,12,3,17,0.00,5,,308